Portada
METAR-TAF:

METAR-TAF

Aeropuertos :

Aeropuerto de Okayama

Okayama, Japón

latitud: 34-45N, longitud: 133-51E, altitud: 241 m

Observación

El informe se hizo hace 13 minutos, a las 01:00 UTC
Viento 9 kt del noroeste, variando entre oeste-suroeste y norte
Temperatura 8°C
Humedad 46%
Presión 1025 hPa
Visibilidad 10 km o más
Escasas nubes a una altura de 3000 ft
Nubes dispersas a una altura de 4500 ft

METAR: RJOB 230100Z 32009KT 240V360 9999 FEW030 SCT045 08/M03 Q1025

Hora: 10:13 (01:13 UTC)

Pronóstico

El informe se hizo hace 2 horas y 4 minutos, a las 23:09 UTC
Pronóstico válido del 23 a las 00 UTC al 24 a las 06 UTC
Viento 9 kt del oeste-noroeste
Visibilidad 10 km o más
Escasas nubes a una altura de 2500 ft
Nubes dispersas a una altura de 4500 ft

TAF: RJOB 222309Z 2300/2406 29009KT 9999 FEW025 SCT045

Observaciones y pronósticos meteorológicos de más de 4000 aeropuertos (mensajes METAR y TAF).

Los puntos amarillos y rojos representan las estaciones disponibles.

Ponga el ratón en el punto deseado para ver el nombre de la estación.

Haga clic para ver las observaciones y los pronósticos meteorológicos.

Para cambiar el mapa : haga clic en los botones verdes con una cruz de color negro para hacer un zoom, en el botón verde con un guión para alejar o en las flechas verdes para mapas adyacentes.


METAR-TAF: